Time;durP1;ratioP1;P1;durP2;ratioP2;P2;SDS_P1;SDS_P2;PMS_P1;PMS_P2;Temp;Humidity;BMP_temperature;BMP_pressure;BME280_temperature;BME280_humidity;BME280_pressure;Samples;Min_cycle;Max_cycle;Signal;HPM_P1;HPM_P2
2022/06/20 00:00:17;;;;;;;;;;;20.90;70.70;;;;;;5073718;28;1285;-67
2022/06/20 00:02:44;;;;;;;;;;;20.90;70.80;;;;;;5073969;28;1371;-67
2022/06/20 00:05:11;;;;;;;;;;;20.90;70.80;;;;;;5073855;28;1352;-67
2022/06/20 00:07:36;;;;;;;;;;;20.90;70.80;;;;;;5075130;28;1323;-67
2022/06/20 00:10:02;;;;;;;;;;;20.90;70.70;;;;;;5073377;28;1246;-67
2022/06/20 00:12:27;;;;;;;;;;;20.90;70.80;;;;;;5072101;28;1274;-67
2022/06/20 00:14:57;;;;;;;;;;;20.90;70.80;;;;;;5062035;28;1959;-68
2022/06/20 00:17:22;;;;;;;;;;;20.90;70.80;;;;;;5073703;28;1278;-68
2022/06/20 00:19:48;;;;;;;;;;;20.90;70.80;;;;;;5068604;28;1225;-67
2022/06/20 00:22:13;;;;;;;;;;;20.90;70.80;;;;;;5073574;28;1275;-67
2022/06/20 00:24:39;;;;;;;;;;;20.90;70.80;;;;;;5073551;28;1345;-68
2022/06/20 00:27:06;;;;;;;;;;;20.90;70.80;;;;;;5066951;28;1443;-69
2022/06/20 00:29:38;;;;;;;;;;;20.90;70.90;;;;;;5073571;28;1328;-69
2022/06/20 00:32:04;;;;;;;;;;;20.90;70.80;;;;;;5073200;28;1410;-68
2022/06/20 00:34:29;;;;;;;;;;;20.90;70.80;;;;;;5070254;28;1382;-69
2022/06/20 00:36:55;;;;;;;;;;;20.90;70.90;;;;;;5070150;28;1971;-69
2022/06/20 00:39:20;;;;;;;;;;;20.90;70.90;;;;;;5073043;28;1307;-68
2022/06/20 00:41:46;;;;;;;;;;;20.90;70.90;;;;;;5074535;28;1306;-69
2022/06/20 00:44:13;;;;;;;;;;;20.90;70.90;;;;;;5073068;28;1270;-69
2022/06/20 00:46:45;;;;;;;;;;;20.90;70.90;;;;;;5073094;28;1333;-69
2022/06/20 00:49:18;;;;;;;;;;;20.90;70.90;;;;;;5073136;28;1351;-69
2022/06/20 00:51:58;;;;;;;;;;;20.90;70.90;;;;;;5072940;28;1254;-68
2022/06/20 00:54:27;;;;;;;;;;;20.90;70.90;;;;;;5056190;28;1337;-68
2022/06/20 00:56:55;;;;;;;;;;;20.90;70.90;;;;;;5074126;28;1918;-68
2022/06/20 00:59:23;;;;;;;;;;;20.90;70.80;;;;;;5072845;28;1307;-69
2022/06/20 01:01:49;;;;;;;;;;;20.90;70.80;;;;;;5072736;28;1270;-69
2022/06/20 01:04:19;;;;;;;;;;;20.90;70.80;;;;;;5072684;28;1286;-68
2022/06/20 01:06:47;;;;;;;;;;;20.90;71.60;;;;;;5065260;28;1310;-68
2022/06/20 01:09:12;;;;;;;;;;;20.90;70.90;;;;;;5066920;28;1366;-68
2022/06/20 01:11:42;;;;;;;;;;;20.90;70.80;;;;;;5072441;28;1254;-68
2022/06/20 01:14:27;;;;;;;;;;;20.90;70.80;;;;;;5070641;28;1269;-68
2022/06/20 01:16:53;;;;;;;;;;;20.90;70.80;;;;;;5063674;28;1910;-67
2022/06/20 01:19:34;;;;;;;;;;;20.90;70.80;;;;;;5072367;28;1397;-67
2022/06/20 01:22:00;;;;;;;;;;;20.90;70.80;;;;;;5073485;28;1262;-67
2022/06/20 01:24:32;;;;;;;;;;;20.90;70.80;;;;;;5073449;28;1205;-67
2022/06/20 01:27:09;;;;;;;;;;;20.90;70.80;;;;;;5066358;28;1320;-67
2022/06/20 01:29:35;;;;;;;;;;;20.90;70.90;;;;;;5073267;28;1264;-67
2022/06/20 01:32:00;;;;;;;;;;;20.90;70.90;;;;;;5069673;28;1354;-67
2022/06/20 01:34:26;;;;;;;;;;;20.90;70.90;;;;;;5061321;28;1404;-67
2022/06/20 01:39:37;;;;;;;;;;;20.90;70.90;;;;;;5072260;28;1207;-67
2022/06/20 01:42:18;;;;;;;;;;;20.90;71.10;;;;;;5071736;28;1422;-66
2022/06/20 01:44:47;;;;;;;;;;;20.90;70.90;;;;;;5073250;28;1451;-67
2022/06/20 01:47:13;;;;;;;;;;;20.90;71.00;;;;;;5072245;28;1211;-68
2022/06/20 01:49:38;;;;;;;;;;;20.90;71.00;;;;;;5054342;28;1358;-68
2022/06/20 01:52:16;;;;;;;;;;;20.90;70.90;;;;;;5059121;28;1270;-68
2022/06/20 01:55:00;;;;;;;;;;;20.90;70.90;;;;;;5073054;28;1137;-68
2022/06/20 01:57:26;;;;;;;;;;;20.90;70.90;;;;;;5073133;28;1273;-68
2022/06/20 01:59:55;;;;;;;;;;;20.90;70.90;;;;;;5071519;28;1429;-68
2022/06/20 02:02:20;;;;;;;;;;;20.90;70.90;;;;;;5073046;28;1355;-68
2022/06/20 02:04:46;;;;;;;;;;;20.90;70.80;;;;;;5071138;28;1246;-68
2022/06/20 02:07:12;;;;;;;;;;;20.90;70.90;;;;;;5071794;28;1349;-69
2022/06/20 02:09:37;;;;;;;;;;;20.90;70.90;;;;;;5071551;28;1321;-67
2022/06/20 02:12:03;;;;;;;;;;;20.90;70.80;;;;;;5071713;28;1282;-67
2022/06/20 02:14:41;;;;;;;;;;;20.90;70.80;;;;;;5071519;28;1344;-68
2022/06/20 02:17:08;;;;;;;;;;;20.90;70.90;;;;;;5071815;28;1902;-68
2022/06/20 02:19:34;;;;;;;;;;;20.90;70.90;;;;;;5058019;28;1183;-68
2022/06/20 02:22:01;;;;;;;;;;;20.90;70.90;;;;;;5071524;28;1328;-68
2022/06/20 02:24:28;;;;;;;;;;;20.90;70.90;;;;;;5054815;28;1344;-69
2022/06/20 02:26:54;;;;;;;;;;;20.90;70.90;;;;;;5064863;28;1358;-68
2022/06/20 02:29:23;;;;;;;;;;;20.90;70.90;;;;;;5070606;28;1852;-68
2022/06/20 02:31:50;;;;;;;;;;;20.90;70.90;;;;;;5064041;28;1202;-68
2022/06/20 02:34:16;;;;;;;;;;;20.90;70.90;;;;;;5056519;28;1430;-68
2022/06/20 02:36:41;;;;;;;;;;;20.90;70.90;;;;;;5095034;22;1910;-72
2022/06/20 02:39:07;;;;;;;;;;;20.90;70.80;;;;;;5057910;28;1205;-73
2022/06/20 02:41:32;;;;;;;;;;;20.90;70.80;;;;;;5057824;28;1266;-72
2022/06/20 02:44:06;;;;;;;;;;;20.90;70.80;;;;;;5074592;28;1165;-72
2022/06/20 02:46:31;;;;;;;;;;;20.90;70.80;;;;;;5060950;28;1271;-73
2022/06/20 02:48:57;;;;;;;;;;;20.90;70.90;;;;;;5092766;28;1055;-72
2022/06/20 02:51:24;;;;;;;;;;;20.90;70.80;;;;;;5074509;28;1296;-72
2022/06/20 02:53:51;;;;;;;;;;;20.90;70.80;;;;;;5074822;28;1174;-72
2022/06/20 02:56:17;;;;;;;;;;;20.90;70.80;;;;;;5092537;28;1972;-73
2022/06/20 02:58:44;;;;;;;;;;;20.90;70.80;;;;;;5092619;28;1067;-72
2022/06/20 03:01:14;;;;;;;;;;;20.90;70.80;;;;;;5074568;28;1199;-72
2022/06/20 03:03:41;;;;;;;;;;;20.90;70.90;;;;;;5074541;28;1119;-72
2022/06/20 03:06:09;;;;;;;;;;;20.90;70.90;;;;;;5092429;28;1158;-72
2022/06/20 03:08:34;;;;;;;;;;;20.90;70.90;;;;;;5074506;28;1060;-72
2022/06/20 03:11:04;;;;;;;;;;;20.90;70.90;;;;;;5074029;28;1139;-73
2022/06/20 03:13:29;;;;;;;;;;;20.90;70.90;;;;;;5058062;28;1091;-72
2022/06/20 03:15:55;;;;;;;;;;;20.90;70.90;;;;;;5074208;28;1902;-72
2022/06/20 03:18:21;;;;;;;;;;;20.90;70.90;;;;;;5074268;28;1114;-72
2022/06/20 03:20:46;;;;;;;;;;;20.90;70.90;;;;;;5074544;28;1091;-72
2022/06/20 03:23:16;;;;;;;;;;;20.90;70.80;;;;;;5096266;28;1126;-72
2022/06/20 03:25:42;;;;;;;;;;;20.90;70.80;;;;;;5077751;28;1310;-72
2022/06/20 03:28:14;;;;;;;;;;;20.90;70.80;;;;;;5077716;28;1177;-72
2022/06/20 03:30:39;;;;;;;;;;;20.90;70.80;;;;;;5077536;28;1286;-72
2022/06/20 03:33:05;;;;;;;;;;;20.90;70.80;;;;;;5077808;28;1172;-72
2022/06/20 03:35:31;;;;;;;;;;;20.90;70.90;;;;;;5077506;28;1906;-72
2022/06/20 03:37:58;;;;;;;;;;;20.90;70.80;;;;;;5095806;28;1298;-72
2022/06/20 03:40:24;;;;;;;;;;;20.90;70.80;;;;;;5077523;28;1122;-72
2022/06/20 03:42:49;;;;;;;;;;;20.90;70.80;;;;;;5095537;28;1173;-72
2022/06/20 03:45:15;;;;;;;;;;;20.90;70.80;;;;;;5060817;28;1223;-72
2022/06/20 03:47:51;;;;;;;;;;;20.90;70.80;;;;;;5077540;28;1349;-72
2022/06/20 03:50:22;;;;;;;;;;;20.90;70.80;;;;;;5077618;28;1147;-72
2022/06/20 03:52:50;;;;;;;;;;;20.90;70.90;;;;;;5047615;28;1315;-72
2022/06/20 03:55:16;;;;;;;;;;;20.90;70.80;;;;;;5063657;28;1977;-72
2022/06/20 03:57:44;;;;;;;;;;;20.90;70.80;;;;;;5095495;28;1213;-72
2022/06/20 04:00:11;;;;;;;;;;;20.90;70.90;;;;;;5077155;28;1122;-72
2022/06/20 04:02:36;;;;;;;;;;;20.90;70.90;;;;;;5060528;28;1192;-72
2022/06/20 04:05:08;;;;;;;;;;;20.90;70.90;;;;;;5095786;28;1063;-74
2022/06/20 04:07:39;;;;;;;;;;;20.90;70.80;;;;;;5095518;28;1349;-71
2022/06/20 04:13:04;;;;;;;;;;;20.90;70.80;;;;;;5079936;28;1244;-71
2022/06/20 04:15:30;;;;;;;;;;;20.90;70.90;;;;;;5077063;28;1914;-72
2022/06/20 04:20:47;;;;;;;;;;;20.90;70.80;;;;;;5075799;28;1155;-71
2022/06/20 04:23:16;;;;;;;;;;;20.90;70.80;;;;;;5095464;28;885;-71
2022/06/20 04:25:48;;;;;;;;;;;20.90;70.80;;;;;;5077743;28;1275;-72
2022/06/20 04:28:22;;;;;;;;;;;20.90;70.80;;;;;;5088626;28;1126;-73
2022/06/20 04:31:05;;;;;;;;;;;20.90;70.80;;;;;;5077091;28;1381;-74
2022/06/20 04:33:35;;;;;;;;;;;20.90;70.80;;;;;;5096188;28;1103;-73
2022/06/20 04:36:03;;;;;;;;;;;20.90;70.90;;;;;;5077250;28;2162;-73
2022/06/20 04:38:30;;;;;;;;;;;20.90;70.80;;;;;;5095760;28;1078;-72
2022/06/20 04:40:59;;;;;;;;;;;20.90;70.90;;;;;;5077197;28;1083;-72
2022/06/20 04:43:47;;;;;;;;;;;20.90;70.80;;;;;;5060388;28;1404;-73
2022/06/20 04:46:17;;;;;;;;;;;20.90;70.90;;;;;;5076872;28;1278;-74
2022/06/20 04:48:46;;;;;;;;;;;20.90;70.90;;;;;;5076298;28;1127;-73
2022/06/20 04:51:13;;;;;;;;;;;20.90;70.80;;;;;;5076230;28;1126;-73
2022/06/20 04:53:39;;;;;;;;;;;20.90;70.90;;;;;;5062783;28;1163;-72
2022/06/20 04:56:05;;;;;;;;;;;20.90;70.80;;;;;;5059720;28;1910;-72
2022/06/20 04:58:35;;;;;;;;;;;20.90;70.90;;;;;;5076490;28;1285;-72
2022/06/20 05:01:01;;;;;;;;;;;20.90;70.80;;;;;;5075605;28;1067;-72
2022/06/20 05:03:27;;;;;;;;;;;20.90;70.90;;;;;;5064001;28;934;-72
2022/06/20 05:05:54;;;;;;;;;;;20.90;70.90;;;;;;5059057;28;1540;-73
2022/06/20 05:08:24;;;;;;;;;;;20.90;70.90;;;;;;5065310;28;1159;-74
2022/06/20 05:10:52;;;;;;;;;;;20.90;70.90;;;;;;5075924;28;1114;-73
2022/06/20 05:13:19;;;;;;;;;;;20.90;70.90;;;;;;5076041;28;1079;-73
2022/06/20 05:15:46;;;;;;;;;;;20.90;70.90;;;;;;5072717;28;1898;-73
2022/06/20 05:18:17;;;;;;;;;;;20.90;71.00;;;;;;5080566;28;1075;-73
2022/06/20 05:20:43;;;;;;;;;;;20.90;70.90;;;;;;5071192;28;1067;-74
2022/06/20 05:23:13;;;;;;;;;;;20.90;70.90;;;;;;5075695;28;1063;-73
2022/06/20 05:25:38;;;;;;;;;;;20.90;70.80;;;;;;5075692;28;1131;-73
2022/06/20 05:28:05;;;;;;;;;;;20.90;70.80;;;;;;5075566;28;1353;-73
2022/06/20 05:30:31;;;;;;;;;;;20.90;70.90;;;;;;5075229;28;1143;-73
2022/06/20 05:33:02;;;;;;;;;;;20.90;70.90;;;;;;5075887;28;1421;-73
2022/06/20 05:35:32;;;;;;;;;;;20.90;70.90;;;;;;5075201;28;1973;-74
2022/06/20 05:38:18;;;;;;;;;;;20.90;70.90;;;;;;5075313;28;1734;-73
2022/06/20 05:40:44;;;;;;;;;;;21.00;71.10;;;;;;5091727;28;1211;-73
2022/06/20 05:43:20;;;;;;;;;;;20.90;71.00;;;;;;5075515;28;1154;-73
2022/06/20 05:45:49;;;;;;;;;;;20.90;70.90;;;;;;5059243;28;1236;-73
2022/06/20 05:48:15;;;;;;;;;;;20.90;70.90;;;;;;5075363;28;1322;-73
2022/06/20 05:50:43;;;;;;;;;;;20.90;70.90;;;;;;5074980;28;1408;-73
2022/06/20 05:53:13;;;;;;;;;;;20.90;70.90;;;;;;5093422;28;1306;-73
2022/06/20 05:55:45;;;;;;;;;;;20.90;70.90;;;;;;5075455;28;1913;-74
2022/06/20 05:58:20;;;;;;;;;;;20.90;70.90;;;;;;5061448;28;1098;-73
2022/06/20 06:00:45;;;;;;;;;;;20.90;71.70;;;;;;5058083;28;1149;-73
2022/06/20 06:03:18;;;;;;;;;;;20.90;70.90;;;;;;5062176;28;1772;-72
2022/06/20 06:05:47;;;;;;;;;;;20.90;70.90;;;;;;5080177;28;1368;-73
2022/06/20 06:08:16;;;;;;;;;;;20.90;70.90;;;;;;5080693;28;1846;-72
2022/06/20 06:10:49;;;;;;;;;;;21.00;70.90;;;;;;5068892;28;1396;-73
2022/06/20 06:13:26;;;;;;;;;;;20.90;70.80;;;;;;5065792;28;1165;-73
2022/06/20 06:18:49;;;;;;;;;;;20.90;70.80;;;;;;5070709;28;1079;-73
2022/06/20 06:21:15;;;;;;;;;;;20.90;70.80;;;;;;5044873;28;1255;-72
2022/06/20 06:23:40;;;;;;;;;;;20.90;70.80;;;;;;5091928;28;1383;-73
2022/06/20 06:26:07;;;;;;;;;;;21.00;70.80;;;;;;5073738;28;1252;-74
2022/06/20 06:28:32;;;;;;;;;;;20.90;70.80;;;;;;5086304;28;1333;-74
2022/06/20 06:30:58;;;;;;;;;;;20.90;70.80;;;;;;5091597;28;1059;-73
2022/06/20 06:33:26;;;;;;;;;;;20.90;70.80;;;;;;5091533;28;1332;-73
2022/06/20 06:35:59;;;;;;;;;;;21.00;70.90;;;;;;5057325;28;1954;-75
2022/06/20 06:38:26;;;;;;;;;;;20.90;70.90;;;;;;5073490;28;1956;-75
2022/06/20 06:40:53;;;;;;;;;;;20.90;70.90;;;;;;5085404;28;1130;-75
2022/06/20 06:43:28;;;;;;;;;;;20.90;70.90;;;;;;5049355;28;1520;-74
2022/06/20 06:45:55;;;;;;;;;;;20.90;70.90;;;;;;5057761;28;1503;-73
2022/06/20 06:48:39;;;;;;;;;;;20.90;70.90;;;;;;5074615;28;1279;-73
2022/06/20 06:51:09;;;;;;;;;;;20.90;70.90;;;;;;5049841;28;1158;-74
2022/06/20 06:53:42;;;;;;;;;;;20.90;70.80;;;;;;5083673;28;1087;-75
2022/06/20 06:56:20;;;;;;;;;;;20.90;70.80;;;;;;5071876;28;1974;-72
2022/06/20 06:58:53;;;;;;;;;;;20.90;70.80;;;;;;5061751;28;1632;-73
2022/06/20 07:01:26;;;;;;;;;;;20.90;70.80;;;;;;5078400;28;902;-73
2022/06/20 07:03:53;;;;;;;;;;;20.90;70.80;;;;;;5096640;28;1076;-73
2022/06/20 07:06:23;;;;;;;;;;;20.90;70.80;;;;;;5078408;28;1287;-73
2022/06/20 07:09:15;;;;;;;;;;;20.90;70.80;;;;;;5078517;28;1053;-73
2022/06/20 07:11:45;;;;;;;;;;;20.90;70.80;;;;;;5072793;28;1012;-73
2022/06/20 07:14:23;;;;;;;;;;;20.90;70.80;;;;;;5058439;28;808;-73
2022/06/20 07:16:57;;;;;;;;;;;20.90;70.80;;;;;;5075987;28;1947;-72
2022/06/20 07:19:24;;;;;;;;;;;20.90;70.80;;;;;;5069476;28;1135;-73
2022/06/20 07:21:49;;;;;;;;;;;20.90;70.80;;;;;;5061539;28;1231;-73
2022/06/20 07:24:16;;;;;;;;;;;20.90;70.80;;;;;;5078172;28;1106;-73
2022/06/20 07:26:42;;;;;;;;;;;20.90;70.80;;;;;;5073035;28;1199;-73
2022/06/20 07:29:12;;;;;;;;;;;20.90;70.80;;;;;;5058283;28;903;-73
2022/06/20 07:31:41;;;;;;;;;;;20.90;70.90;;;;;;5057896;28;1005;-73
2022/06/20 07:34:08;;;;;;;;;;;20.90;70.90;;;;;;5058051;28;835;-72
2022/06/20 07:36:42;;;;;;;;;;;20.90;70.90;;;;;;5057598;28;1894;-73
2022/06/20 07:39:34;;;;;;;;;;;20.90;70.90;;;;;;5075794;28;926;-73
2022/06/20 07:42:04;;;;;;;;;;;20.90;70.90;;;;;;5072612;28;1442;-74
2022/06/20 07:44:30;;;;;;;;;;;20.90;70.90;;;;;;5057946;28;919;-74
2022/06/20 07:47:03;;;;;;;;;;;20.90;70.90;;;;;;5041155;28;1217;-73
2022/06/20 07:49:30;;;;;;;;;;;20.90;70.90;;;;;;5041615;28;1280;-74
2022/06/20 07:51:56;;;;;;;;;;;20.90;70.90;;;;;;5057631;28;816;-73
2022/06/20 07:54:27;;;;;;;;;;;20.90;70.90;;;;;;5057785;28;931;-73
2022/06/20 07:56:55;;;;;;;;;;;20.90;70.90;;;;;;5057691;28;1965;-73
2022/06/20 07:59:27;;;;;;;;;;;20.90;70.90;;;;;;5075356;28;852;-73
2022/06/20 08:01:55;;;;;;;;;;;20.90;70.90;;;;;;5057288;28;823;-73
2022/06/20 08:04:27;;;;;;;;;;;20.90;70.90;;;;;;5056642;28;819;-73
2022/06/20 08:06:54;;;;;;;;;;;20.90;70.90;;;;;;5057687;28;1306;-73
2022/06/20 08:09:22;;;;;;;;;;;20.90;70.90;;;;;;5059755;28;1150;-73
2022/06/20 08:11:50;;;;;;;;;;;20.90;70.90;;;;;;5077021;28;807;-73
2022/06/20 08:14:34;;;;;;;;;;;21.00;71.00;;;;;;5095156;28;1024;-73
2022/06/20 08:17:01;;;;;;;;;;;20.90;70.90;;;;;;5095311;28;1955;-72
2022/06/20 08:19:26;;;;;;;;;;;20.90;70.90;;;;;;5065023;28;1102;-73
2022/06/20 08:21:57;;;;;;;;;;;20.90;71.00;;;;;;5056494;28;1380;-73
2022/06/20 08:24:31;;;;;;;;;;;20.90;70.80;;;;;;5056964;28;796;-73
2022/06/20 08:27:17;;;;;;;;;;;20.90;70.80;;;;;;5056880;28;1304;-74
2022/06/20 08:29:49;;;;;;;;;;;20.90;70.90;;;;;;5073725;28;1152;-73
2022/06/20 08:32:33;;;;;;;;;;;20.90;70.80;;;;;;5056644;28;961;-74
2022/06/20 08:35:04;;;;;;;;;;;20.90;70.80;;;;;;5074516;28;883;-73
2022/06/20 08:37:30;;;;;;;;;;;20.90;70.80;;;;;;5099411;22;3707;-75
2022/06/20 08:39:56;;;;;;;;;;;20.90;70.90;;;;;;5076312;28;827;-75
2022/06/20 08:42:28;;;;;;;;;;;20.90;70.80;;;;;;5095135;28;806;-75
2022/06/20 08:45:12;;;;;;;;;;;20.90;70.90;;;;;;5095042;28;799;-75
2022/06/20 08:47:58;;;;;;;;;;;20.90;70.90;;;;;;5094823;28;1208;-75
2022/06/20 08:50:43;;;;;;;;;;;20.90;70.90;;;;;;5059533;28;1298;-75
2022/06/20 08:53:11;;;;;;;;;;;20.90;70.90;;;;;;5094537;28;949;-75
2022/06/20 08:55:42;;;;;;;;;;;20.90;70.90;;;;;;5094495;28;1992;-74
2022/06/20 08:58:17;;;;;;;;;;;20.90;70.90;;;;;;5094511;28;1217;-74
2022/06/20 09:00:46;;;;;;;;;;;20.90;71.00;;;;;;5076102;28;1075;-72
2022/06/20 09:03:29;;;;;;;;;;;20.90;70.90;;;;;;5094591;28;870;-75
2022/06/20 09:06:10;;;;;;;;;;;20.90;70.90;;;;;;5076141;28;1297;-76
2022/06/20 09:08:54;;;;;;;;;;;20.90;70.90;;;;;;5094358;28;875;-73
2022/06/20 09:11:42;;;;;;;;;;;20.90;70.90;;;;;;5093833;28;1257;-73
2022/06/20 09:14:14;;;;;;;;;;;20.90;70.90;;;;;;5087661;28;1041;-74
2022/06/20 09:16:49;;;;;;;;;;;20.90;70.90;;;;;;5075632;28;1890;-74
2022/06/20 09:19:14;;;;;;;;;;;20.90;70.90;;;;;;5080800;28;1093;-74
2022/06/20 09:21:40;;;;;;;;;;;20.90;70.90;;;;;;5075409;28;1262;-74
2022/06/20 09:24:21;;;;;;;;;;;20.90;70.90;;;;;;5094128;28;807;-74
2022/06/20 09:27:02;;;;;;;;;;;20.90;70.90;;;;;;5088496;28;1274;-74
2022/06/20 09:29:30;;;;;;;;;;;20.90;70.90;;;;;;5055703;28;891;-74
2022/06/20 09:32:02;;;;;;;;;;;20.90;70.90;;;;;;5055384;28;1311;-74
2022/06/20 09:34:50;;;;;;;;;;;20.90;70.90;;;;;;5055765;28;1313;-74
2022/06/20 09:37:16;;;;;;;;;;;20.90;70.90;;;;;;5061345;28;1887;-75
2022/06/20 09:40:00;;;;;;;;;;;20.90;70.90;;;;;;5093410;28;854;-74
2022/06/20 09:42:28;;;;;;;;;;;20.90;70.90;;;;;;5093863;28;815;-74
2022/06/20 09:45:03;;;;;;;;;;;20.90;71.40;;;;;;5089630;28;1476;-73
2022/06/20 09:47:34;;;;;;;;;;;20.90;71.00;;;;;;5072454;28;1498;-72
2022/06/20 09:49:59;;;;;;;;;;;20.90;70.90;;;;;;5075087;28;1049;-72
2022/06/20 09:52:40;;;;;;;;;;;20.90;70.90;;;;;;5075385;28;1168;-71
2022/06/20 09:55:05;;;;;;;;;;;20.90;70.90;;;;;;5075310;28;1907;-72
2022/06/20 09:57:40;;;;;;;;;;;20.90;71.00;;;;;;5093512;28;1272;-71
2022/06/20 10:00:07;;;;;;;;;;;20.90;70.90;;;;;;5075150;28;846;-72
2022/06/20 10:02:46;;;;;;;;;;;20.90;71.00;;;;;;5075287;28;913;-71
2022/06/20 10:05:18;;;;;;;;;;;20.90;70.90;;;;;;5091572;28;1183;-71
2022/06/20 10:07:50;;;;;;;;;;;20.90;71.00;;;;;;5038349;28;1268;-72
2022/06/20 10:10:21;;;;;;;;;;;20.90;71.00;;;;;;5064940;28;1230;-72
2022/06/20 10:13:05;;;;;;;;;;;20.90;71.00;;;;;;5075150;28;1089;-73
2022/06/20 10:15:41;;;;;;;;;;;20.90;71.00;;;;;;5093013;28;1909;-71
2022/06/20 10:18:06;;;;;;;;;;;20.90;71.00;;;;;;5073962;28;1315;-73
2022/06/20 10:20:34;;;;;;;;;;;20.90;71.00;;;;;;5072513;28;1025;-71
2022/06/20 10:23:02;;;;;;;;;;;20.90;71.00;;;;;;5072760;28;918;-72
2022/06/20 10:25:34;;;;;;;;;;;20.90;71.00;;;;;;5072636;28;816;-72
2022/06/20 10:28:22;;;;;;;;;;;20.90;71.00;;;;;;5072715;28;1185;-72
2022/06/20 10:31:00;;;;;;;;;;;20.90;71.00;;;;;;5061722;28;1017;-72
2022/06/20 10:33:34;;;;;;;;;;;20.90;71.00;;;;;;5072830;28;795;-73
2022/06/20 10:36:21;;;;;;;;;;;20.90;71.00;;;;;;5072677;28;1910;-72
2022/06/20 10:38:50;;;;;;;;;;;20.90;71.00;;;;;;5055434;28;835;-71
2022/06/20 10:41:32;;;;;;;;;;;20.90;71.10;;;;;;5037925;28;1338;-72
2022/06/20 10:44:16;;;;;;;;;;;20.90;71.80;;;;;;5054779;28;752;-72
2022/06/20 10:46:42;;;;;;;;;;;20.90;71.10;;;;;;5054454;28;1192;-72
2022/06/20 10:49:23;;;;;;;;;;;20.90;71.10;;;;;;5054743;28;847;-72
2022/06/20 10:52:07;;;;;;;;;;;20.90;71.10;;;;;;5054395;28;811;-71
2022/06/20 10:54:32;;;;;;;;;;;20.90;71.10;;;;;;5071515;28;1287;-73
2022/06/20 10:56:58;;;;;;;;;;;20.90;71.10;;;;;;5072520;28;1957;-72
2022/06/20 10:59:33;;;;;;;;;;;20.90;71.10;;;;;;5072670;28;844;-73
2022/06/20 11:02:04;;;;;;;;;;;20.90;71.10;;;;;;5054426;28;832;-72
2022/06/20 11:04:50;;;;;;;;;;;20.90;71.10;;;;;;5071283;28;1183;-72
2022/06/20 11:07:19;;;;;;;;;;;20.90;71.10;;;;;;5071536;28;1226;-72
2022/06/20 11:10:03;;;;;;;;;;;20.90;71.10;;;;;;5078269;28;1183;-71
2022/06/20 11:12:48;;;;;;;;;;;20.90;71.10;;;;;;5092730;28;794;-71
2022/06/20 11:15:19;;;;;;;;;;;20.90;71.10;;;;;;5092437;28;1949;-72
2022/06/20 11:18:14;;;;;;;;;;;20.90;71.10;;;;;;5074682;28;1153;-74
2022/06/20 11:20:45;;;;;;;;;;;20.90;71.10;;;;;;5017293;28;1191;-74
2022/06/20 11:23:13;;;;;;;;;;;20.90;71.10;;;;;;5038032;28;1156;-73
2022/06/20 11:26:14;;;;;;;;;;;20.90;71.10;;;;;;5054475;28;1057;-76
2022/06/20 11:28:49;;;;;;;;;;;20.90;71.10;;;;;;4993684;28;1333;-75
2022/06/20 11:31:29;;;;;;;;;;;20.90;71.10;;;;;;5062864;28;1022;-74
2022/06/20 11:34:09;;;;;;;;;;;20.90;71.10;;;;;;5072255;28;970;-73
2022/06/20 11:36:34;;;;;;;;;;;20.90;71.10;;;;;;5054277;28;1898;-74
2022/06/20 11:39:12;;;;;;;;;;;20.90;71.10;;;;;;5074674;28;898;-75
2022/06/20 11:41:42;;;;;;;;;;;20.90;71.20;;;;;;5075494;28;978;-73
2022/06/20 11:44:15;;;;;;;;;;;20.90;71.10;;;;;;5057863;28;859;-74
2022/06/20 11:46:41;;;;;;;;;;;20.90;71.10;;;;;;5057876;28;1138;-73
2022/06/20 11:49:16;;;;;;;;;;;20.90;71.10;;;;;;5075818;28;858;-72
2022/06/20 11:51:49;;;;;;;;;;;20.90;71.10;;;;;;5057551;28;930;-73
2022/06/20 11:54:18;;;;;;;;;;;20.90;71.20;;;;;;5057679;28;945;-75
2022/06/20 11:56:48;;;;;;;;;;;20.90;71.20;;;;;;5057552;28;1898;-72
2022/06/20 11:59:22;;;;;;;;;;;20.90;71.10;;;;;;5057554;28;952;-69
2022/06/20 12:01:53;;;;;;;;;;;20.90;71.20;;;;;;5057290;28;772;-75
2022/06/20 12:04:20;;;;;;;;;;;20.90;71.20;;;;;;5041047;28;1274;-74
2022/06/20 12:07:00;;;;;;;;;;;20.90;71.10;;;;;;5057293;28;1198;-75
2022/06/20 12:09:28;;;;;;;;;;;20.80;71.10;;;;;;5078807;28;1131;-73
2022/06/20 12:12:03;;;;;;;;;;;20.90;71.20;;;;;;5095458;28;890;-73
2022/06/20 12:14:31;;;;;;;;;;;20.90;71.20;;;;;;5095650;28;974;-72
2022/06/20 12:17:13;;;;;;;;;;;20.90;71.20;;;;;;5095369;28;1897;-73
2022/06/20 12:25:12;;;;;;;;;;;20.90;71.20;;;;;;5059887;28;649;-75
2022/06/20 12:27:38;;;;;;;;;;;20.90;71.20;;;;;;5074790;28;1173;-74
2022/06/20 12:30:04;;;;;;;;;;;20.90;71.20;;;;;;5057026;28;823;-74
2022/06/20 12:32:30;;;;;;;;;;;20.90;71.20;;;;;;5074967;28;839;-74
2022/06/20 12:34:56;;;;;;;;;;;20.90;71.20;;;;;;5056753;28;934;-73
2022/06/20 12:37:57;;;;;;;;;;;20.90;71.20;;;;;;5074381;28;1890;-73
2022/06/20 12:40:26;;;;;;;;;;;20.80;71.20;;;;;;4992773;28;1373;-74
2022/06/20 12:43:10;;;;;;;;;;;20.80;71.10;;;;;;5041920;28;2288;-74
2022/06/20 12:45:39;;;;;;;;;;;20.80;71.20;;;;;;5088909;28;1124;-74
2022/06/20 12:48:10;;;;;;;;;;;20.80;71.20;;;;;;5086204;28;1473;-74
2022/06/20 12:50:41;;;;;;;;;;;20.80;71.20;;;;;;5094338;28;814;-74
2022/06/20 12:53:17;;;;;;;;;;;20.80;71.20;;;;;;5076716;28;1298;-73
2022/06/20 12:56:02;;;;;;;;;;;20.80;71.20;;;;;;5076825;28;1894;-74
2022/06/20 12:58:27;;;;;;;;;;;20.80;71.20;;;;;;5094590;28;791;-73
2022/06/20 13:00:54;;;;;;;;;;;20.80;71.20;;;;;;5094470;28;918;-74
2022/06/20 13:03:29;;;;;;;;;;;20.80;71.20;;;;;;5094855;28;795;-76
2022/06/20 13:06:01;;;;;;;;;;;20.80;71.20;;;;;;5094662;28;1149;-74
2022/06/20 13:08:40;;;;;;;;;;;20.80;71.20;;;;;;5076293;28;1489;-75
2022/06/20 13:11:05;;;;;;;;;;;20.80;71.20;;;;;;5064432;28;1494;-75
2022/06/20 13:13:49;;;;;;;;;;;20.80;71.20;;;;;;5086913;28;1168;-71
2022/06/20 13:16:21;;;;;;;;;;;20.80;71.20;;;;;;5093066;28;1906;-75
2022/06/20 13:18:56;;;;;;;;;;;20.80;71.20;;;;;;5073381;28;1970;-74
2022/06/20 13:21:37;;;;;;;;;;;20.80;71.20;;;;;;5084141;28;1142;-74
2022/06/20 13:24:20;;;;;;;;;;;20.80;71.20;;;;;;5067819;28;1169;-74
2022/06/20 13:26:48;;;;;;;;;;;20.80;71.30;;;;;;5087923;28;1356;-75
2022/06/20 13:29:27;;;;;;;;;;;20.80;71.20;;;;;;5085364;28;1129;-74
2022/06/20 13:32:01;;;;;;;;;;;20.80;71.30;;;;;;5075476;28;1171;-75
2022/06/20 13:34:46;;;;;;;;;;;20.80;71.30;;;;;;5058956;28;1163;-75
2022/06/20 13:37:12;;;;;;;;;;;20.80;71.20;;;;;;5075194;28;1981;-74
2022/06/20 13:39:45;;;;;;;;;;;20.80;71.30;;;;;;5093698;28;804;-75
2022/06/20 13:42:14;;;;;;;;;;;20.80;71.30;;;;;;5075431;28;725;-74
2022/06/20 13:44:58;;;;;;;;;;;20.80;71.30;;;;;;5058896;28;1223;-74
2022/06/20 13:47:25;;;;;;;;;;;20.80;71.30;;;;;;5084443;28;1559;-70
2022/06/20 13:50:09;;;;;;;;;;;20.80;71.30;;;;;;5075271;28;769;-72
2022/06/20 13:52:43;;;;;;;;;;;20.80;71.30;;;;;;5093293;28;963;-69
2022/06/20 13:55:14;;;;;;;;;;;20.80;71.30;;;;;;5093368;28;862;-70
2022/06/20 13:57:42;;;;;;;;;;;20.80;71.30;;;;;;5093394;28;1169;-71
2022/06/20 14:00:16;;;;;;;;;;;20.80;71.30;;;;;;5058183;28;1195;-71
2022/06/20 14:02:42;;;;;;;;;;;20.80;71.30;;;;;;5081877;28;1787;-69
2022/06/20 14:05:11;;;;;;;;;;;20.80;71.30;;;;;;5055082;28;1199;-70
2022/06/20 14:07:36;;;;;;;;;;;20.80;71.30;;;;;;5092269;28;1240;-70
2022/06/20 14:10:02;;;;;;;;;;;20.80;71.30;;;;;;5064966;28;1185;-70
2022/06/20 14:12:28;;;;;;;;;;;20.80;71.30;;;;;;5054030;28;1136;-72
2022/06/20 14:15:14;;;;;;;;;;;20.80;71.30;;;;;;5054258;28;989;-70
2022/06/20 14:17:40;;;;;;;;;;;20.80;71.30;;;;;;5051962;28;1292;-69
2022/06/20 14:20:09;;;;;;;;;;;20.80;71.30;;;;;;5062778;28;1123;-70
2022/06/20 14:22:39;;;;;;;;;;;20.80;71.30;;;;;;5072850;28;711;-71
2022/06/20 14:25:20;;;;;;;;;;;20.80;71.30;;;;;;5054097;28;789;-71
2022/06/20 14:27:51;;;;;;;;;;;20.80;71.30;;;;;;5086140;28;1231;-68
2022/06/20 14:30:28;;;;;;;;;;;20.80;71.30;;;;;;5091611;28;771;-72
2022/06/20 14:32:56;;;;;;;;;;;20.80;71.30;;;;;;5073255;28;807;-71
2022/06/20 14:35:24;;;;;;;;;;;20.80;71.30;;;;;;5091837;28;1965;-70
2022/06/20 14:40:36;;;;;;;;;;;20.80;71.40;;;;;;5065049;28;1519;-69
2022/06/20 14:43:08;;;;;;;;;;;20.80;71.30;;;;;;5071330;28;898;-70
2022/06/20 14:45:34;;;;;;;;;;;20.80;71.30;;;;;;5071417;28;913;-70
2022/06/20 14:48:02;;;;;;;;;;;20.80;71.30;;;;;;5071514;28;1217;-69
2022/06/20 14:50:46;;;;;;;;;;;20.80;71.40;;;;;;5071363;28;910;-69
2022/06/20 14:53:11;;;;;;;;;;;20.80;71.40;;;;;;5072693;28;815;-69
2022/06/20 14:55:39;;;;;;;;;;;20.80;71.40;;;;;;5072321;28;1983;-69
2022/06/20 14:58:09;;;;;;;;;;;20.80;71.40;;;;;;5071460;28;1195;-69
2022/06/20 15:00:47;;;;;;;;;;;20.80;71.40;;;;;;5071175;28;921;-69
2022/06/20 15:03:30;;;;;;;;;;;20.80;71.40;;;;;;5072636;28;867;-70
2022/06/20 15:06:06;;;;;;;;;;;20.80;71.40;;;;;;5054321;28;1215;-69
2022/06/20 15:08:38;;;;;;;;;;;20.80;71.40;;;;;;5072525;28;1196;-69
2022/06/20 15:11:05;;;;;;;;;;;20.80;71.30;;;;;;5070861;28;1198;-68
2022/06/20 15:13:31;;;;;;;;;;;20.80;71.40;;;;;;5074596;28;803;-69
2022/06/20 15:15:58;;;;;;;;;;;20.80;71.40;;;;;;5076125;28;1905;-69